Eurocargo Sicilia — IBAQ — position and weather

sailwx.info

Track history (hours):
 
Tides and Currents Weather Stations Pressure Air Temp Water Temp Dewpoint Dewpoint Depression Visibility Wind Speed Wind Dir Waves Ship Positions

Eurocargo Sicilia

Last reported at 2018-Jun-24 16:06 UTC. Time now 2018-Jun-24 18:54 UTC.
Position N 43°40' E 013°54'.

Length 193 m; draft 6.4 m.

Type: Cargo ship. MMSI: 247241700.

Date/timePositionNaut miles runAvg speedWind from/ knotsBaromVisibWave heightAir tempDewpointWater temp
2018-Jun-24 16:06N 43°40' E 013°54'216.0
2018-Jun-24 16:00N 43°41' E 013°52'  
2018-Jun-22 01:32N 37°49' E 015°60'015.0
2018-Jun-22 01:31N 37°49' E 015°59'815.6
2018-Jun-22 01:01N 37°45' E 015°51'816.0
2018-Jun-22 00:31N 37°41' E 015°42'816.1
2018-Jun-22 00:00N 37°37' E 015°33'816.1
2018-Jun-21 23:30N 37°34' E 015°24'2 0.1
2018-Jun-21 11:28N 37°33' E 015°22'917.1
2018-Jun-21 10:57N 37°38' E 015°32'817.0
2018-Jun-21 10:30N 37°41' E 015°40'916.8
2018-Jun-21 09:57N 37°45' E 015°51'38510.8
2018-Jun-19 22:24N 43°55' E 013°26'717.0
2018-Jun-19 22:00N 43°58' E 013°18'917.0
2018-Jun-19 21:29N 44°03' E 013°08'917.1
2018-Jun-19 20:58N 44°08' E 012°58'817.0
2018-Jun-19 20:30N 44°14' E 012°51'916.8
2018-Jun-19 19:57N 44°21' E 012°42'716.9
2018-Jun-19 19:30N 44°27' E 012°35'  
2018-Jun-17 15:06N 37°49' E 016°00'217.4
2018-Jun-17 15:00N 37°49' E 015°58'917.8
2018-Jun-17 14:30N 37°44' E 015°48'1017.8
2018-Jun-17 13:57N 37°39' E 015°37'817.2
2018-Jun-17 13:30N 37°36' E 015°29'18 0.9
2018-Jun-16 16:58N 37°45' E 015°48'  
Track history (hours):
 
Tides and Currents Weather Stations Pressure Air Temp Water Temp Dewpoint Dewpoint Depression Visibility Wind Speed Wind Dir Waves Ship Positions

Eurocargo Sicilia

Last reported at 2018-Jun-24 16:06 UTC. Time now 2018-Jun-24 18:54 UTC.
Position N 43°40' E 013°54'.

Length 193 m; draft 6.4 m.

Type: Cargo ship. MMSI: 247241700.

Date/timePositionNaut miles runAvg speedWind from/ knotsBaromVisibWave heightAir tempDewpointWater temp
2018-Jun-24 16:06N 43°40' E 013°54'216.0
2018-Jun-24 16:00N 43°41' E 013°52'  
2018-Jun-22 01:32N 37°49' E 015°60'015.0
2018-Jun-22 01:31N 37°49' E 015°59'815.6
2018-Jun-22 01:01N 37°45' E 015°51'816.0
2018-Jun-22 00:31N 37°41' E 015°42'816.1
2018-Jun-22 00:00N 37°37' E 015°33'816.1
2018-Jun-21 23:30N 37°34' E 015°24'2 0.1
2018-Jun-21 11:28N 37°33' E 015°22'917.1
2018-Jun-21 10:57N 37°38' E 015°32'817.0
2018-Jun-21 10:30N 37°41' E 015°40'916.8
2018-Jun-21 09:57N 37°45' E 015°51'38510.8
2018-Jun-19 22:24N 43°55' E 013°26'717.0
2018-Jun-19 22:00N 43°58' E 013°18'917.0
2018-Jun-19 21:29N 44°03' E 013°08'917.1
2018-Jun-19 20:58N 44°08' E 012°58'817.0
2018-Jun-19 20:30N 44°14' E 012°51'916.8
2018-Jun-19 19:57N 44°21' E 012°42'716.9
2018-Jun-19 19:30N 44°27' E 012°35'  
2018-Jun-17 15:06N 37°49' E 016°00'217.4
2018-Jun-17 15:00N 37°49' E 015°58'917.8
2018-Jun-17 14:30N 37°44' E 015°48'1017.8
2018-Jun-17 13:57N 37°39' E 015°37'817.2
2018-Jun-17 13:30N 37°36' E 015°29'18 0.9
2018-Jun-16 16:58N 37°45' E 015°48'  

Dump ship's entire track history